createdAt,value
2018-12-19T00:01:46.526Z,0.51
2018-12-19T00:04:14.111Z,0.79
2018-12-19T00:06:41.649Z,0.99
2018-12-19T00:09:09.182Z,1.12
2018-12-19T00:11:36.745Z,1.20
2018-12-19T00:14:04.297Z,1.36
2018-12-19T00:16:32.369Z,1.61
2018-12-19T00:18:59.930Z,1.79
2018-12-19T00:21:27.437Z,1.85
2018-12-19T00:23:54.980Z,1.74
2018-12-19T00:26:22.530Z,1.97
2018-12-19T00:28:50.124Z,1.86
2018-12-19T00:31:17.638Z,1.87
2018-12-19T00:33:45.190Z,1.97
2018-12-19T00:36:12.714Z,1.86
2018-12-19T00:38:40.240Z,1.84
2018-12-19T00:41:07.793Z,2.02
2018-12-19T00:43:35.399Z,1.76
2018-12-19T00:46:02.953Z,1.53
2018-12-19T00:48:30.485Z,1.32
2018-12-19T00:50:58.059Z,1.39
2018-12-19T00:53:26.405Z,1.62
2018-12-19T00:55:53.953Z,1.58
2018-12-19T00:58:21.506Z,1.49
2018-12-19T01:00:49.059Z,1.47
2018-12-19T01:03:16.604Z,1.39
2018-12-19T01:05:44.149Z,1.05
2018-12-19T01:08:11.676Z,0.92
2018-12-19T01:10:39.275Z,0.74
2018-12-19T01:13:07.092Z,0.68
2018-12-19T01:15:34.711Z,0.66
2018-12-19T01:18:02.678Z,0.48
2018-12-19T01:20:30.244Z,0.44
2018-12-19T01:22:57.811Z,0.41
2018-12-19T01:25:25.349Z,0.41
2018-12-19T01:27:52.937Z,0.32
2018-12-19T01:30:21.166Z,0.30
2018-12-19T01:32:49.352Z,0.32
2018-12-19T01:35:16.900Z,0.25
2018-12-19T01:37:44.468Z,0.18
2018-12-19T01:40:12.044Z,0.15
2018-12-19T01:42:39.589Z,0.09
2018-12-19T01:45:07.297Z,0.12
2018-12-19T01:47:35.087Z,0.08
2018-12-19T01:50:02.902Z,0.05
2018-12-19T01:52:30.519Z,-0.02
2018-12-19T01:54:58.116Z,-0.06
2018-12-19T01:57:25.705Z,-0.02
2018-12-19T01:59:53.242Z,-0.04
2018-12-19T02:02:20.814Z,-0.15
2018-12-19T02:04:48.364Z,-0.15
2018-12-19T02:07:15.908Z,-0.19
2018-12-19T02:09:43.452Z,-0.20
2018-12-19T02:12:11.056Z,-0.11
2018-12-19T02:14:38.620Z,-0.11
2018-12-19T02:17:06.236Z,-0.12
2018-12-19T02:19:34.520Z,-0.17
2018-12-19T02:22:02.582Z,-0.13
2018-12-19T02:24:30.130Z,-0.21
2018-12-19T02:26:57.663Z,-0.16
2018-12-19T02:29:25.230Z,-0.15
2018-12-19T02:31:52.764Z,-0.17
2018-12-19T02:34:20.385Z,-0.21
2018-12-19T02:36:47.941Z,-0.17
2018-12-19T02:39:15.488Z,-0.18
2018-12-19T02:41:43.432Z,-0.22
2018-12-19T02:44:11.075Z,-0.22
2018-12-19T02:46:38.612Z,-0.17
2018-12-19T02:49:06.193Z,-0.16
2018-12-19T02:51:33.741Z,-0.10
2018-12-19T02:54:01.328Z,-0.09
2018-12-19T02:56:28.857Z,0.09
2018-12-19T02:58:56.526Z,0.10
2018-12-19T03:01:24.323Z,0.23
2018-12-19T03:03:51.854Z,0.30
2018-12-19T03:06:19.387Z,0.30
2018-12-19T03:08:46.965Z,0.41
2018-12-19T03:11:15.076Z,0.48
2018-12-19T03:13:42.980Z,0.45
2018-12-19T03:16:10.753Z,0.46
2018-12-19T03:18:38.293Z,0.53
2018-12-19T03:21:05.867Z,0.55
2018-12-19T03:23:33.415Z,0.45
2018-12-19T03:26:01.341Z,0.55
2018-12-19T03:28:28.983Z,0.58
2018-12-19T03:30:56.567Z,0.55
2018-12-19T03:33:24.573Z,0.59
2018-12-19T03:35:52.089Z,0.58
2018-12-19T03:38:26.343Z,0.61
2018-12-19T03:40:53.884Z,0.50
2018-12-19T03:43:21.439Z,0.51
2018-12-19T03:45:49.014Z,0.50
2018-12-19T03:48:22.099Z,0.47
2018-12-19T03:50:49.965Z,0.51
2018-12-19T03:53:17.497Z,0.41
2018-12-19T03:55:45.050Z,0.47
2018-12-19T03:58:12.654Z,0.39
2018-12-19T04:00:40.264Z,0.31
2018-12-19T04:03:07.817Z,0.33
2018-12-19T04:05:35.365Z,0.30
2018-12-19T04:08:02.906Z,0.30
2018-12-19T04:10:30.497Z,0.31
2018-12-19T04:12:58.021Z,0.29
2018-12-19T04:15:25.576Z,0.35
2018-12-19T04:17:53.144Z,0.37
2018-12-19T04:20:20.686Z,0.39
2018-12-19T04:22:48.631Z,0.46
2018-12-19T04:25:16.213Z,0.52
2018-12-19T04:27:43.748Z,0.60
2018-12-19T04:30:11.310Z,0.75
2018-12-19T04:32:39.073Z,0.80
2018-12-19T04:35:06.693Z,0.91
2018-12-19T04:37:34.238Z,0.97
2018-12-19T04:40:05.668Z,1.01
2018-12-19T04:42:31.547Z,1.22
2018-12-19T04:44:59.137Z,1.18
2018-12-19T04:47:26.707Z,1.19
2018-12-19T04:49:54.228Z,1.17
2018-12-19T04:52:21.780Z,1.12
2018-12-19T04:54:49.333Z,1.24
2018-12-19T04:57:16.919Z,1.14
2018-12-19T04:59:44.481Z,1.16
2018-12-19T05:02:12.021Z,1.27
2018-12-19T05:04:39.881Z,1.30
2018-12-19T05:07:07.459Z,1.36
2018-12-19T05:09:35.016Z,1.48
2018-12-19T05:12:02.861Z,1.61
2018-12-19T05:14:30.407Z,1.70
2018-12-19T05:16:57.938Z,1.76
2018-12-19T05:19:25.577Z,1.79
2018-12-19T05:21:53.208Z,1.75
2018-12-19T05:24:20.793Z,1.67
2018-12-19T05:26:48.405Z,1.72
2018-12-19T05:29:15.993Z,1.72
2018-12-19T05:31:44.233Z,1.67
2018-12-19T05:34:12.106Z,1.64
2018-12-19T05:36:39.653Z,1.58
2018-12-19T05:39:07.186Z,1.69
2018-12-19T05:41:34.754Z,1.83
2018-12-19T05:44:02.266Z,1.95
2018-12-19T05:46:29.801Z,1.97
2018-12-19T05:48:57.408Z,2.00
2018-12-19T05:51:25.012Z,1.98
2018-12-19T05:53:52.567Z,2.01
2018-12-19T05:56:20.105Z,2.08
2018-12-19T05:58:47.674Z,2.01
2018-12-19T06:01:16.064Z,1.97
2018-12-19T06:03:43.688Z,1.79
2018-12-19T06:06:11.253Z,1.63
2018-12-19T06:08:38.789Z,1.47
2018-12-19T06:11:06.368Z,1.36
2018-12-19T06:13:33.897Z,1.25
2018-12-19T06:16:01.539Z,1.22
2018-12-19T06:18:29.095Z,1.19
2018-12-19T06:20:56.755Z,1.25
2018-12-19T06:23:24.269Z,1.22
2018-12-19T06:25:51.859Z,1.20
2018-12-19T06:28:19.397Z,1.24
2018-12-19T06:30:47.052Z,1.24
2018-12-19T06:33:14.602Z,1.29
2018-12-19T06:35:42.129Z,1.35
2018-12-19T06:38:10.003Z,1.38
2018-12-19T06:40:37.537Z,1.45
2018-12-19T06:43:05.070Z,1.49
2018-12-19T06:45:32.618Z,1.59
2018-12-19T06:48:00.186Z,1.69
2018-12-19T06:50:27.736Z,1.76
2018-12-19T06:52:55.324Z,1.85
2018-12-19T06:55:22.961Z,2.03
2018-12-19T06:57:50.529Z,2.17
2018-12-19T07:00:18.020Z,2.36
2018-12-19T07:02:45.633Z,2.46
2018-12-19T07:05:13.326Z,2.53
2018-12-19T07:07:40.976Z,2.53
2018-12-19T07:10:08.577Z,2.67
2018-12-19T07:12:36.241Z,2.88
2018-12-19T07:15:03.992Z,2.89
2018-12-19T07:17:31.549Z,3.00
2018-12-19T07:19:59.081Z,3.06
2018-12-19T07:22:26.618Z,3.11
2018-12-19T07:24:54.165Z,3.11
2018-12-19T07:27:21.725Z,3.22
2018-12-19T07:29:49.510Z,3.26
2018-12-19T07:32:17.192Z,3.30
2018-12-19T07:34:44.768Z,3.37
2018-12-19T07:37:12.327Z,3.46
2018-12-19T07:39:39.863Z,3.40
2018-12-19T07:42:07.418Z,3.39
2018-12-19T07:44:34.957Z,3.42
2018-12-19T07:47:02.642Z,3.37
2018-12-19T07:49:30.209Z,3.30
2018-12-19T07:51:57.873Z,3.35
2018-12-19T07:54:25.410Z,3.30
2018-12-19T07:56:53.018Z,3.23
2018-12-19T07:59:20.542Z,3.20
2018-12-19T08:01:48.133Z,3.18
2018-12-19T08:04:16.128Z,3.28
2018-12-19T08:06:44.708Z,3.30
2018-12-19T08:09:12.298Z,3.28
2018-12-19T08:11:39.901Z,3.34
2018-12-19T08:14:07.474Z,3.37
2018-12-19T08:16:35.008Z,3.47
2018-12-19T08:19:02.828Z,3.58
2018-12-19T08:21:30.385Z,3.66
2018-12-19T08:23:57.910Z,3.68
2018-12-19T08:26:25.466Z,3.67
2018-12-19T08:28:53.070Z,3.68
2018-12-19T08:31:20.753Z,3.64
2018-12-19T08:33:48.270Z,3.57
2018-12-19T08:36:16.114Z,3.45
2018-12-19T08:38:43.797Z,3.38
2018-12-19T08:41:11.310Z,3.24
2018-12-19T08:43:38.888Z,3.08
2018-12-19T08:46:06.406Z,3.02
2018-12-19T08:48:33.925Z,3.00
2018-12-19T08:51:02.140Z,3.04
2018-12-19T08:53:29.663Z,3.06
2018-12-19T08:55:57.196Z,3.26
2018-12-19T08:58:24.784Z,3.20
2018-12-19T09:00:52.337Z,3.26
2018-12-19T09:03:19.869Z,3.47
2018-12-19T09:05:47.454Z,3.46
2018-12-19T09:08:15.410Z,3.42
2018-12-19T09:10:43.241Z,3.40
2018-12-19T09:13:10.757Z,3.38
2018-12-19T09:15:43.872Z,3.43
2018-12-19T09:18:11.412Z,3.63
2018-12-19T09:20:39.333Z,3.69
2018-12-19T09:23:06.940Z,3.74
2018-12-19T09:25:34.457Z,3.93
2018-12-19T09:28:02.342Z,3.92
2018-12-19T09:30:29.920Z,3.93
2018-12-19T09:32:57.628Z,3.88
2018-12-19T09:35:25.618Z,3.82
2018-12-19T09:37:53.166Z,3.77
2018-12-19T09:40:20.755Z,3.77
2018-12-19T09:42:48.377Z,3.72
2018-12-19T09:45:15.905Z,3.94
2018-12-19T09:47:43.505Z,3.98
2018-12-19T09:50:11.125Z,4.02
2018-12-19T09:52:38.658Z,4.04
2018-12-19T09:55:06.706Z,4.04
2018-12-19T09:57:34.255Z,4.17
2018-12-19T10:00:03.234Z,4.21
2018-12-19T10:02:31.116Z,4.24
2018-12-19T10:04:58.641Z,4.31
2018-12-19T10:07:26.153Z,4.38
2018-12-19T10:09:53.726Z,4.53
2018-12-19T10:12:21.288Z,4.44
2018-12-19T10:14:48.909Z,4.42
2018-12-19T10:17:16.423Z,4.37
2018-12-19T10:19:43.982Z,4.30
2018-12-19T10:22:13.570Z,4.36
2018-12-19T10:24:46.637Z,4.44
2018-12-19T10:27:18.737Z,4.49
2018-12-19T10:29:46.263Z,4.46
2018-12-19T10:32:13.816Z,4.45
2018-12-19T10:34:43.021Z,4.54
2018-12-19T10:37:10.833Z,4.54
2018-12-19T10:39:38.366Z,4.56
2018-12-19T10:42:05.904Z,4.52
2018-12-19T10:44:33.430Z,4.60
2018-12-19T10:47:01.033Z,4.60
2018-12-19T10:49:28.573Z,4.66
2018-12-19T10:51:56.105Z,4.79
2018-12-19T10:54:23.644Z,4.83
2018-12-19T10:56:51.283Z,4.89
2018-12-19T10:59:19.983Z,5.01
2018-12-19T11:01:47.800Z,4.98
2018-12-19T11:04:15.328Z,4.97
2018-12-19T11:06:42.881Z,5.06
2018-12-19T11:09:10.701Z,5.00
2018-12-19T11:11:38.216Z,5.07
2018-12-19T11:14:05.748Z,5.07
2018-12-19T11:16:33.297Z,5.06
2018-12-19T11:19:00.834Z,5.06
2018-12-19T11:21:28.465Z,5.14
2018-12-19T11:23:56.073Z,5.18
2018-12-19T11:26:23.776Z,5.21
2018-12-19T11:28:51.392Z,5.16
2018-12-19T11:31:19.010Z,5.14
2018-12-19T11:33:46.703Z,5.14
2018-12-19T11:36:14.264Z,5.12
2018-12-19T11:38:41.795Z,5.14
2018-12-19T11:41:09.374Z,5.14
2018-12-19T11:43:36.960Z,5.25
2018-12-19T11:46:04.529Z,5.22
2018-12-19T11:48:32.080Z,5.20
2018-12-19T11:50:59.659Z,5.30
2018-12-19T11:53:27.661Z,5.33
2018-12-19T11:55:55.333Z,5.33
2018-12-19T11:58:22.848Z,5.36
2018-12-19T12:00:50.555Z,5.46
2018-12-19T12:03:18.901Z,5.37
2018-12-19T12:05:46.549Z,5.37
2018-12-19T12:08:14.146Z,5.28
2018-12-19T12:10:41.739Z,5.30
2018-12-19T12:13:09.698Z,5.27
2018-12-19T12:15:37.248Z,5.20
2018-12-19T12:18:04.784Z,5.15
2018-12-19T12:20:32.429Z,5.24
2018-12-19T12:23:00.084Z,5.05
2018-12-19T12:25:28.097Z,5.09
2018-12-19T12:27:55.710Z,5.07
2018-12-19T12:30:23.258Z,5.02
2018-12-19T12:32:50.840Z,5.03
2018-12-19T12:35:18.518Z,5.13
2018-12-19T12:37:46.040Z,5.08
2018-12-19T12:40:13.585Z,5.06
2018-12-19T12:42:41.142Z,4.97
2018-12-19T12:45:08.690Z,4.98
2018-12-19T12:47:36.410Z,5.06
2018-12-19T12:50:04.709Z,4.95
2018-12-19T12:52:32.287Z,4.92
2018-12-19T12:54:59.833Z,4.95
2018-12-19T12:57:27.416Z,4.96
2018-12-19T12:59:54.967Z,4.93
2018-12-19T13:02:22.986Z,5.00
2018-12-19T13:04:50.621Z,5.03
2018-12-19T13:07:18.134Z,5.22
2018-12-19T13:09:45.685Z,5.37
2018-12-19T13:12:13.232Z,5.42
2018-12-19T13:14:40.784Z,5.49
2018-12-19T13:17:08.352Z,5.44
2018-12-19T13:19:35.868Z,5.59
2018-12-19T13:22:03.526Z,5.53
2018-12-19T13:24:31.100Z,5.53
2018-12-19T13:26:59.009Z,5.44
2018-12-19T13:29:26.646Z,5.53
2018-12-19T13:31:54.321Z,5.52
2018-12-19T13:34:21.871Z,5.47
2018-12-19T13:36:50.133Z,5.52
2018-12-19T13:39:17.749Z,5.51
2018-12-19T13:41:45.332Z,5.54
2018-12-19T13:44:12.961Z,5.62
2018-12-19T13:46:40.527Z,5.67
2018-12-19T13:49:08.089Z,5.75
2018-12-19T13:51:35.667Z,5.66
2018-12-19T13:54:03.252Z,5.73
2018-12-19T13:56:30.889Z,5.62
2018-12-19T13:58:58.595Z,5.67
2018-12-19T14:01:26.150Z,5.70
2018-12-19T14:03:53.733Z,5.70
2018-12-19T14:06:21.444Z,5.67
2018-12-19T14:08:49.059Z,5.62
2018-12-19T14:11:16.601Z,5.54
2018-12-19T14:13:44.149Z,5.53
2018-12-19T14:16:11.748Z,5.56
2018-12-19T14:18:39.381Z,5.62
2018-12-19T14:21:07.092Z,5.59
2018-12-19T14:23:34.641Z,5.54
2018-12-19T14:26:02.276Z,5.53
2018-12-19T14:28:29.849Z,5.47
2018-12-19T14:30:57.462Z,5.45
2018-12-19T14:33:25.011Z,5.62
2018-12-19T14:35:52.592Z,5.58
2018-12-19T14:38:20.234Z,5.54
2018-12-19T14:40:48.145Z,5.36
2018-12-19T14:43:15.714Z,5.38
2018-12-19T14:45:43.392Z,5.34
2018-12-19T14:48:10.952Z,5.31
2018-12-19T14:50:38.508Z,5.24
2018-12-19T14:53:06.072Z,5.33
2018-12-19T14:55:33.805Z,5.36
2018-12-19T14:58:01.357Z,5.29
2018-12-19T15:00:28.955Z,5.16
2018-12-19T15:02:56.548Z,5.03
2018-12-19T15:05:24.149Z,4.98
2018-12-19T15:07:51.753Z,5.06
2018-12-19T15:10:19.473Z,5.08
2018-12-19T15:12:47.016Z,5.08
2018-12-19T15:15:14.576Z,5.01
2018-12-19T15:17:42.262Z,5.04
2018-12-19T15:20:09.851Z,4.91
2018-12-19T15:22:37.402Z,4.84
2018-12-19T15:25:05.226Z,4.87
2018-12-19T15:27:33.014Z,4.85
2018-12-19T15:30:00.780Z,4.83
2018-12-19T15:32:28.326Z,4.76
2018-12-19T15:34:55.961Z,4.74
2018-12-19T15:37:23.506Z,4.71
2018-12-19T15:39:51.065Z,4.69
2018-12-19T15:42:18.618Z,4.71
2018-12-19T15:44:46.180Z,4.73
2018-12-19T15:47:13.753Z,4.68
2018-12-19T15:49:41.279Z,4.73
2018-12-19T15:52:08.859Z,4.68
2018-12-19T15:54:36.492Z,4.55
2018-12-19T15:57:04.035Z,4.53
2018-12-19T15:59:31.636Z,4.44
2018-12-19T16:01:59.215Z,4.44
2018-12-19T16:04:27.337Z,4.45
2018-12-19T16:06:54.930Z,4.42
2018-12-19T16:09:22.531Z,4.37
2018-12-19T16:11:50.125Z,4.28
2018-12-19T16:14:17.801Z,4.31
2018-12-19T16:16:45.362Z,4.26
2018-12-19T16:19:12.966Z,4.17
2018-12-19T16:21:40.531Z,4.05
2018-12-19T16:24:08.095Z,3.96
2018-12-19T16:26:35.694Z,3.92
2018-12-19T16:29:03.259Z,3.71
2018-12-19T16:31:30.887Z,3.58
2018-12-19T16:33:58.565Z,3.61
2018-12-19T16:36:26.169Z,3.59
2018-12-19T16:38:53.745Z,3.47
2018-12-19T16:41:21.393Z,3.47
2018-12-19T16:43:48.981Z,3.47
2018-12-19T16:46:16.549Z,3.43
2018-12-19T16:48:44.801Z,3.47
2018-12-19T16:51:12.394Z,3.45
2018-12-19T16:53:39.951Z,3.57
2018-12-19T16:56:08.028Z,3.58
2018-12-19T16:58:35.599Z,3.59
2018-12-19T17:01:03.282Z,3.61
2018-12-19T17:03:30.854Z,3.61
2018-12-19T17:05:58.414Z,3.63
2018-12-19T17:08:26.188Z,3.65
2018-12-19T17:10:53.741Z,3.66
2018-12-19T17:13:21.288Z,3.73
2018-12-19T17:15:49.218Z,3.76
2018-12-19T17:18:16.842Z,3.80
2018-12-19T17:20:44.363Z,3.76
2018-12-19T17:23:11.921Z,3.77
2018-12-19T17:25:39.451Z,3.73
2018-12-19T17:28:07.029Z,3.75
2018-12-19T17:30:34.562Z,3.78
2018-12-19T17:33:02.236Z,3.72
2018-12-19T17:35:29.763Z,3.71
2018-12-19T17:37:57.382Z,3.68
2018-12-19T17:40:25.223Z,3.63
2018-12-19T17:42:59.246Z,3.74
2018-12-19T17:45:22.282Z,3.72
2018-12-19T17:47:50.066Z,3.68
2018-12-19T17:50:17.610Z,3.68
2018-12-19T17:52:45.161Z,3.64
2018-12-19T17:55:12.713Z,3.60
2018-12-19T17:57:40.256Z,3.66
2018-12-19T18:00:10.165Z,3.51
2018-12-19T18:02:37.811Z,3.56
2018-12-19T18:05:05.473Z,3.58
2018-12-19T18:07:33.134Z,3.56
2018-12-19T18:10:01.542Z,3.61
2018-12-19T18:12:29.224Z,3.60
2018-12-19T18:14:56.805Z,3.55
2018-12-19T18:17:24.348Z,3.63
2018-12-19T18:19:51.876Z,3.60
2018-12-19T18:22:19.458Z,3.62
2018-12-19T18:24:47.031Z,3.66
2018-12-19T18:27:14.585Z,3.61
2018-12-19T18:29:42.118Z,3.61
2018-12-19T18:32:09.674Z,3.65
2018-12-19T18:34:37.542Z,3.65
2018-12-19T18:37:05.077Z,3.67
2018-12-19T18:39:32.662Z,3.62
2018-12-19T18:42:00.214Z,3.69
2018-12-19T18:44:27.709Z,3.65
2018-12-19T18:46:55.339Z,3.65
2018-12-19T18:49:22.893Z,3.62
2018-12-19T18:51:50.457Z,3.64
2018-12-19T18:54:17.993Z,3.61
2018-12-19T18:56:45.554Z,3.59
2018-12-19T18:59:13.200Z,3.57
2018-12-19T19:01:40.805Z,3.57
2018-12-19T19:04:08.357Z,3.59
2018-12-19T19:06:36.158Z,3.59
2018-12-19T19:09:04.446Z,3.56
2018-12-19T19:11:32.002Z,3.58
2018-12-19T19:13:59.589Z,3.58
2018-12-19T19:16:27.147Z,3.51
2018-12-19T19:18:54.653Z,3.48
2018-12-19T19:21:22.261Z,3.43
2018-12-19T19:23:49.848Z,3.39
2018-12-19T19:26:17.438Z,3.41
2018-12-19T19:28:44.955Z,3.39
2018-12-19T19:31:12.620Z,3.31
2018-12-19T19:33:40.277Z,3.20
2018-12-19T19:36:07.808Z,3.24
2018-12-19T19:38:35.384Z,3.24
2018-12-19T19:41:02.998Z,3.15
2018-12-19T19:43:30.543Z,3.21
2018-12-19T19:45:58.126Z,3.20
2018-12-19T19:48:25.740Z,3.20
2018-12-19T19:50:53.299Z,3.14
2018-12-19T19:53:20.868Z,3.17
2018-12-19T19:55:48.385Z,3.15
2018-12-19T19:58:15.923Z,3.09
2018-12-19T20:00:43.453Z,3.08
2018-12-19T20:03:11.247Z,3.13
2018-12-19T20:05:38.992Z,3.08
2018-12-19T20:08:06.610Z,3.11
2018-12-19T20:10:35.018Z,3.09
2018-12-19T20:13:02.743Z,3.09
2018-12-19T20:15:30.425Z,3.13
2018-12-19T20:17:58.008Z,3.11
2018-12-19T20:20:25.627Z,3.09
2018-12-19T20:22:53.178Z,3.15
2018-12-19T20:25:21.022Z,3.19
2018-12-19T20:27:48.787Z,3.13
2018-12-19T20:30:16.362Z,3.16
2018-12-19T20:32:43.911Z,3.20
2018-12-19T20:35:11.496Z,3.25
2018-12-19T20:37:39.056Z,3.18
2018-12-19T20:40:06.599Z,3.16
2018-12-19T20:42:34.218Z,3.10
2018-12-19T20:45:02.076Z,3.11
2018-12-19T20:47:29.652Z,3.11
2018-12-19T20:49:57.176Z,3.14
2018-12-19T20:52:24.733Z,3.14
2018-12-19T20:54:52.255Z,3.10
2018-12-19T20:57:19.801Z,3.09
2018-12-19T20:59:47.372Z,3.08
2018-12-19T21:02:15.290Z,3.08
2018-12-19T21:04:42.847Z,3.10
2018-12-19T21:07:10.410Z,3.12
2018-12-19T21:09:37.960Z,3.14
2018-12-19T21:12:05.539Z,3.13
2018-12-19T21:14:33.340Z,3.08
2018-12-19T21:17:06.643Z,3.13
2018-12-19T21:19:34.181Z,3.14
2018-12-19T21:22:01.925Z,3.15
2018-12-19T21:24:29.501Z,3.12
2018-12-19T21:26:57.015Z,3.15
2018-12-19T21:29:24.534Z,3.02
2018-12-19T21:31:52.079Z,3.00
2018-12-19T21:34:19.611Z,2.98
2018-12-19T21:36:47.277Z,3.01
2018-12-19T21:39:14.898Z,2.98
2018-12-19T21:41:42.546Z,3.07
2018-12-19T21:44:10.093Z,3.05
2018-12-19T21:46:37.723Z,3.05
2018-12-19T21:49:05.388Z,2.99
2018-12-19T21:51:33.076Z,3.05
2018-12-19T21:54:00.939Z,3.03
2018-12-19T21:56:28.619Z,3.03
2018-12-19T21:58:56.276Z,3.02
2018-12-19T22:01:23.958Z,3.02
2018-12-19T22:03:51.595Z,3.03
2018-12-19T22:06:19.330Z,3.07
2018-12-19T22:08:46.897Z,3.05
2018-12-19T22:11:14.549Z,2.99
2018-12-19T22:13:42.278Z,3.08
2018-12-19T22:16:14.433Z,2.94
2018-12-19T22:18:46.314Z,2.95
2018-12-19T22:21:14.235Z,2.87
2018-12-19T22:23:42.140Z,2.91
2018-12-19T22:26:11.380Z,2.94
2018-12-19T22:28:39.162Z,2.93
2018-12-19T22:31:06.823Z,2.89
2018-12-19T22:33:34.497Z,2.95
2018-12-19T22:36:02.124Z,2.89
2018-12-19T22:38:29.645Z,2.95
2018-12-19T22:40:57.261Z,2.92
2018-12-19T22:43:24.830Z,2.91
2018-12-19T22:45:52.377Z,2.90
2018-12-19T22:48:19.955Z,2.90
2018-12-19T22:50:47.602Z,2.97
2018-12-19T22:53:15.226Z,2.98
2018-12-19T22:55:42.786Z,3.04
2018-12-19T22:58:10.439Z,3.07
2018-12-19T23:00:43.938Z,3.05
2018-12-19T23:03:11.570Z,3.05
2018-12-19T23:05:44.684Z,3.06
2018-12-19T23:08:12.896Z,3.10
2018-12-19T23:10:40.969Z,3.16
2018-12-19T23:13:08.536Z,3.15
2018-12-19T23:15:36.275Z,3.17
2018-12-19T23:18:09.897Z,3.14
2018-12-19T23:20:37.582Z,3.12
2018-12-19T23:23:05.199Z,3.18
2018-12-19T23:25:32.798Z,3.20
2018-12-19T23:28:00.392Z,3.18
2018-12-19T23:30:28.008Z,3.14
2018-12-19T23:32:56.861Z,3.14
2018-12-19T23:35:24.475Z,3.15
2018-12-19T23:37:52.173Z,3.14
2018-12-19T23:40:19.835Z,3.16
2018-12-19T23:42:47.464Z,3.15
2018-12-19T23:45:15.092Z,3.15
2018-12-19T23:47:42.716Z,3.17
2018-12-19T23:50:10.601Z,3.13
2018-12-19T23:52:38.281Z,3.07
2018-12-19T23:55:06.101Z,2.97
2018-12-19T23:57:33.693Z,2.99
